Terminal Aerodrome Forecast
Issued by NWS Jackson, KY

Home | Current Version | Previous Version | Text Only | Print | Product List | Glossary On
Versions: 1 2 3 4 5 6 7 8 9 10 11 12 13 14 15 16 17 18 19
000
FTUS43 KJKL 201400 AAA
TAFLOZ
TAF AMD
KLOZ 201450Z 2015/2112 VRB03KT P6SM -DZ SCT008 OVC015
     FM201700 VRB03KT P6SM BKN030
     FM210600 00000KT 2SM BR SCT040
     FM210900 00000KT 1/2SM FG SCT003 SCT040=

USA.gov is the U.S. government's official web portal to all federal, state and local government web resources and services.